Wolke Sonne

Wetter Roßtal

Gehe zu: Ammerndorf

Tageswerte vom Samstag, 12.03.2022

Optionen

Tag:
Erweitert:

Alle Werte vom Samstag, 12.03.2022

Einen Moment bitte, die Daten werden aufbereitet...

UhrzeitTemperaturFeuchteLuftdruckNiederschlagEvapotranspirationNiederschlag?WindWindböenRegenrateWindrichtungHelligkeitSolarstrahlungUV-IndexSonne?Feinstaub 10µmFeinstaub 2,5µmUhrzeit
Diagramm IconDiagramm IconDiagramm IconDiagramm IconDiagramm IconDiagramm IconDiagramm IconDiagramm IconDiagramm IconDiagramm IconDiagramm IconDiagramm IconDiagramm IconDiagramm IconDiagramm IconDiagramm Icon
00:00-0,6 °C 47 % 1023,7 hPa 0,0 mm 0,0 mm nein 6,4 km/h 9,7 km/h 0,0 mm/h O 0,000 klux 0,0 W/qm 0,0 nein 12,50 µg/m³ 7,99 µg/m³ 00:00
00:05-0,6 °C 48 % 1023,5 hPa 0,0 mm 0,0 mm nein 6,4 km/h 12,9 km/h 0,0 mm/h O 0,000 klux 0,0 W/qm 0,0 nein 9,59 µg/m³ 5,07 µg/m³ 00:05
00:100,0 °C 46 % 1023,3 hPa 0,0 mm 0,0 mm nein 9,7 km/h 19,3 km/h 0,0 mm/h O 0,000 klux 0,0 W/qm 0,0 nein 6,79 µg/m³ 4,01 µg/m³ 00:10
00:150,0 °C 45 % 1023,4 hPa 0,0 mm 0,0 mm nein 8,0 km/h 17,7 km/h 0,0 mm/h OSO 0,000 klux 0,0 W/qm 0,0 nein 8,20 µg/m³ 4,81 µg/m³ 00:15
00:200,0 °C 45 % 1023,4 hPa 0,0 mm 0,0 mm nein 8,0 km/h 19,3 km/h 0,0 mm/h OSO 0,000 klux 0,0 W/qm 0,0 nein 7,10 µg/m³ 4,53 µg/m³ 00:20
00:250,0 °C 44 % 1023,5 hPa 0,0 mm 0,0 mm nein 6,4 km/h 12,9 km/h 0,0 mm/h OSO 0,000 klux 0,0 W/qm 0,0 nein 7,59 µg/m³ 5,15 µg/m³ 00:25
00:300,6 °C 44 % 1023,3 hPa 0,0 mm 0,0 mm nein 6,4 km/h 14,5 km/h 0,0 mm/h OSO 0,000 klux 0,0 W/qm 0,0 nein 9,16 µg/m³ 7,04 µg/m³ 00:30
00:350,6 °C 44 % 1023,4 hPa 0,0 mm 0,0 mm nein 6,4 km/h 14,5 km/h 0,0 mm/h OSO 0,000 klux 0,0 W/qm 0,0 nein 10,57 µg/m³ 6,81 µg/m³ 00:35
00:400,6 °C 44 % 1023,4 hPa 0,0 mm 0,0 mm nein 3,2 km/h 8,0 km/h 0,0 mm/h OSO 0,000 klux 0,0 W/qm 0,0 nein 7,69 µg/m³ 5,32 µg/m³ 00:40
00:450,6 °C 44 % 1023,4 hPa 0,0 mm 0,0 mm nein 4,8 km/h 8,0 km/h 0,0 mm/h OSO 0,000 klux 0,0 W/qm 0,0 nein 8,50 µg/m³ 5,34 µg/m³ 00:45
00:500,6 °C 44 % 1023,4 hPa 0,0 mm 0,0 mm nein 4,8 km/h 8,0 km/h 0,0 mm/h O 0,000 klux 0,0 W/qm 0,0 nein 13,30 µg/m³ 6,88 µg/m³ 00:50
00:550,6 °C 44 % 1023,4 hPa 0,0 mm 0,0 mm nein 6,4 km/h 11,3 km/h 0,0 mm/h OSO 0,000 klux 0,0 W/qm 0,0 nein 8,99 µg/m³ 7,50 µg/m³ 00:55
01:000,6 °C 44 % 1023,4 hPa 0,0 mm 0,1 mm nein 4,8 km/h 11,3 km/h 0,0 mm/h OSO 0,000 klux 0,0 W/qm 0,0 nein 7,25 µg/m³ 5,96 µg/m³ 01:00
01:050,6 °C 44 % 1023,4 hPa 0,0 mm 0,0 mm nein 4,8 km/h 12,9 km/h 0,0 mm/h OSO 0,000 klux 0,0 W/qm 0,0 nein 8,05 µg/m³ 4,57 µg/m³ 01:05
01:100,6 °C 44 % 1023,4 hPa 0,0 mm 0,0 mm nein 3,2 km/h 4,8 km/h 0,0 mm/h OSO 0,000 klux 0,0 W/qm 0,0 nein 8,22 µg/m³ 5,96 µg/m³ 01:10
01:150,0 °C 44 % 1023,5 hPa 0,0 mm 0,0 mm nein 3,2 km/h 8,0 km/h 0,0 mm/h OSO 0,000 klux 0,0 W/qm 0,0 nein 8,42 µg/m³ 6,65 µg/m³ 01:15
01:200,0 °C 45 % 1023,5 hPa 0,0 mm 0,0 mm nein 3,2 km/h 6,4 km/h 0,0 mm/h OSO 0,000 klux 0,0 W/qm 0,0 nein 12,68 µg/m³ 6,90 µg/m³ 01:20
01:250,0 °C 45 % 1023,7 hPa 0,0 mm 0,0 mm nein 3,2 km/h 6,4 km/h 0,0 mm/h OSO 0,000 klux 0,0 W/qm 0,0 nein 10,94 µg/m³ 7,34 µg/m³ 01:25
01:300,0 °C 45 % 1023,7 hPa 0,0 mm 0,0 mm nein 3,2 km/h 6,4 km/h 0,0 mm/h OSO 0,000 klux 0,0 W/qm 0,0 nein 8,88 µg/m³ 5,70 µg/m³ 01:30
01:350,0 °C 46 % 1023,8 hPa 0,0 mm 0,0 mm nein 3,2 km/h 6,4 km/h 0,0 mm/h OSO 0,000 klux 0,0 W/qm 0,0 nein 10,23 µg/m³ 9,17 µg/m³ 01:35
01:400,0 °C 46 % 1023,7 hPa 0,0 mm 0,0 mm nein 3,2 km/h 4,8 km/h 0,0 mm/h OSO 0,000 klux 0,0 W/qm 0,0 nein 7,68 µg/m³ 4,51 µg/m³ 01:40
01:45-0,6 °C 46 % 1023,8 hPa 0,0 mm 0,0 mm nein 3,2 km/h 8,0 km/h 0,0 mm/h OSO 0,000 klux 0,0 W/qm 0,0 nein 7,26 µg/m³ 5,42 µg/m³ 01:45
01:50-0,6 °C 46 % 1023,8 hPa 0,0 mm 0,0 mm nein 3,2 km/h 8,0 km/h 0,0 mm/h OSO 0,000 klux 0,0 W/qm 0,0 nein 7,45 µg/m³ 4,81 µg/m³ 01:50
01:55-0,6 °C 46 % 1023,9 hPa 0,0 mm 0,0 mm nein 3,2 km/h 6,4 km/h 0,0 mm/h OSO 0,000 klux 0,0 W/qm 0,0 nein 9,02 µg/m³ 5,15 µg/m³ 01:55
UhrzeitTemperaturFeuchteLuftdruckNiederschlagEvapotranspirationNiederschlag?WindWindböenRegenrateWindrichtungHelligkeitSolarstrahlungUV-IndexSonne?Feinstaub 10µmFeinstaub 2,5µmUhrzeit
02:00-0,6 °C 46 % 1023,9 hPa 0,0 mm 0,0 mm nein 3,2 km/h 4,8 km/h 0,0 mm/h OSO 0,000 klux 0,0 W/qm 0,0 nein 5,21 µg/m³ 4,22 µg/m³ 02:00
02:05-0,6 °C 46 % 1023,9 hPa 0,0 mm 0,0 mm nein 3,2 km/h 6,4 km/h 0,0 mm/h OSO 0,000 klux 0,0 W/qm 0,0 nein 9,63 µg/m³ 5,05 µg/m³ 02:05
02:10-0,6 °C 47 % 1023,9 hPa 0,0 mm 0,0 mm nein 3,2 km/h 6,4 km/h 0,0 mm/h OSO 0,000 klux 0,0 W/qm 0,0 nein 6,20 µg/m³ 4,35 µg/m³ 02:10
02:15-0,6 °C 46 % 1024,0 hPa 0,0 mm 0,0 mm nein 1,6 km/h 6,4 km/h 0,0 mm/h OSO 0,000 klux 0,0 W/qm 0,0 nein 7,86 µg/m³ 4,72 µg/m³ 02:15
02:20-0,6 °C 47 % 1024,0 hPa 0,0 mm 0,0 mm nein 1,6 km/h 4,8 km/h 0,0 mm/h OSO 0,000 klux 0,0 W/qm 0,0 nein 5,57 µg/m³ 4,10 µg/m³ 02:20
02:25-1,1 °C 47 % 1024,0 hPa 0,0 mm 0,0 mm nein 1,6 km/h 3,2 km/h 0,0 mm/h OSO 0,000 klux 0,0 W/qm 0,0 nein 6,28 µg/m³ 4,85 µg/m³ 02:25
02:30-1,1 °C 47 % 1024,1 hPa 0,0 mm 0,0 mm nein 1,6 km/h 4,8 km/h 0,0 mm/h OSO 0,000 klux 0,0 W/qm 0,0 nein 7,49 µg/m³ 5,82 µg/m³ 02:30
02:35-1,1 °C 47 % 1024,0 hPa 0,0 mm 0,0 mm nein 1,6 km/h 4,8 km/h 0,0 mm/h OSO 0,000 klux 0,0 W/qm 0,0 nein 6,50 µg/m³ 4,30 µg/m³ 02:35
02:40-1,1 °C 48 % 1024,0 hPa 0,0 mm 0,0 mm nein 1,6 km/h 6,4 km/h 0,0 mm/h OSO 0,000 klux 0,0 W/qm 0,0 nein 10,49 µg/m³ 8,44 µg/m³ 02:40
02:45-1,1 °C 48 % 1023,9 hPa 0,0 mm 0,0 mm nein 3,2 km/h 4,8 km/h 0,0 mm/h OSO 0,000 klux 0,0 W/qm 0,0 nein 5,49 µg/m³ 4,05 µg/m³ 02:45
02:50-1,1 °C 49 % 1023,9 hPa 0,0 mm 0,0 mm nein 3,2 km/h 4,8 km/h 0,0 mm/h O 0,000 klux 0,0 W/qm 0,0 nein 6,83 µg/m³ 4,38 µg/m³ 02:50
02:55-1,7 °C 49 % 1024,0 hPa 0,0 mm 0,0 mm nein 3,2 km/h 4,8 km/h 0,0 mm/h O 0,000 klux 0,0 W/qm 0,0 nein 10,42 µg/m³ 6,53 µg/m³ 02:55
03:00-1,7 °C 49 % 1023,9 hPa 0,0 mm 0,0 mm nein 1,6 km/h 6,4 km/h 0,0 mm/h O 0,000 klux 0,0 W/qm 0,0 nein 5,32 µg/m³ 4,09 µg/m³ 03:00
03:05-1,7 °C 50 % 1023,8 hPa 0,0 mm 0,0 mm nein 1,6 km/h 4,8 km/h 0,0 mm/h O 0,000 klux 0,0 W/qm 0,0 nein 13,04 µg/m³ 9,93 µg/m³ 03:05
03:10-1,7 °C 50 % 1023,8 hPa 0,0 mm 0,0 mm nein 4,8 km/h 8,0 km/h 0,0 mm/h O 0,000 klux 0,0 W/qm 0,0 nein 7,11 µg/m³ 4,47 µg/m³ 03:10
03:15-1,7 °C 51 % 1023,7 hPa 0,0 mm 0,0 mm nein 1,6 km/h 4,8 km/h 0,0 mm/h O 0,000 klux 0,0 W/qm 0,0 nein 8,83 µg/m³ 5,30 µg/m³ 03:15
03:20-1,7 °C 51 % 1023,6 hPa 0,0 mm 0,0 mm nein 3,2 km/h 4,8 km/h 0,0 mm/h O 0,000 klux 0,0 W/qm 0,0 nein 5,47 µg/m³ 4,56 µg/m³ 03:20
03:25-1,7 °C 51 % 1023,6 hPa 0,0 mm 0,0 mm nein 1,6 km/h 4,8 km/h 0,0 mm/h O 0,000 klux 0,0 W/qm 0,0 nein 5,21 µg/m³ 4,68 µg/m³ 03:25
03:30-1,7 °C 49 % 1023,8 hPa 0,0 mm 0,0 mm nein 1,6 km/h 4,8 km/h 0,0 mm/h OSO 0,000 klux 0,0 W/qm 0,0 nein 6,83 µg/m³ 3,94 µg/m³ 03:30
03:35-1,7 °C 50 % 1023,8 hPa 0,0 mm 0,0 mm nein 0,0 km/h 3,2 km/h 0,0 mm/h OSO 0,000 klux 0,0 W/qm 0,0 nein 4,92 µg/m³ 4,25 µg/m³ 03:35
03:40-2,2 °C 51 % 1023,8 hPa 0,0 mm 0,0 mm nein 0,0 km/h 1,6 km/h 0,0 mm/h OSO 0,000 klux 0,0 W/qm 0,0 nein 6,59 µg/m³ 4,70 µg/m³ 03:40
03:45-2,2 °C 51 % 1023,8 hPa 0,0 mm 0,0 mm nein 1,6 km/h 3,2 km/h 0,0 mm/h OSO 0,000 klux 0,0 W/qm 0,0 nein 6,53 µg/m³ 3,87 µg/m³ 03:45
03:50-2,2 °C 51 % 1023,8 hPa 0,0 mm 0,0 mm nein 0,0 km/h 3,2 km/h 0,0 mm/h OSO 0,000 klux 0,0 W/qm 0,0 nein 7,42 µg/m³ 4,06 µg/m³ 03:50
03:55-2,2 °C 51 % 1023,7 hPa 0,0 mm 0,0 mm nein 1,6 km/h 3,2 km/h 0,0 mm/h OSO 0,000 klux 0,0 W/qm 0,0 nein 4,94 µg/m³ 4,22 µg/m³ 03:55
UhrzeitTemperaturFeuchteLuftdruckNiederschlagEvapotranspirationNiederschlag?WindWindböenRegenrateWindrichtungHelligkeitSolarstrahlungUV-IndexSonne?Feinstaub 10µmFeinstaub 2,5µmUhrzeit
04:00-2,2 °C 52 % 1023,7 hPa 0,0 mm 0,0 mm nein 1,6 km/h 3,2 km/h 0,0 mm/h OSO 0,000 klux 0,0 W/qm 0,0 nein 4,60 µg/m³ 4,16 µg/m³ 04:00
04:05-2,2 °C 53 % 1023,7 hPa 0,0 mm 0,0 mm nein 3,2 km/h 6,4 km/h 0,0 mm/h OSO 0,000 klux 0,0 W/qm 0,0 nein 6,59 µg/m³ 4,74 µg/m³ 04:05
04:10-2,2 °C 52 % 1023,6 hPa 0,0 mm 0,0 mm nein 4,8 km/h 8,0 km/h 0,0 mm/h O 0,000 klux 0,0 W/qm 0,0 nein 6,20 µg/m³ 4,44 µg/m³ 04:10
04:15-2,2 °C 51 % 1023,6 hPa 0,0 mm 0,0 mm nein 1,6 km/h 4,8 km/h 0,0 mm/h O 0,000 klux 0,0 W/qm 0,0 nein 7,22 µg/m³ 4,50 µg/m³ 04:15
04:20-2,2 °C 52 % 1023,6 hPa 0,0 mm 0,0 mm nein 3,2 km/h 6,4 km/h 0,0 mm/h O 0,000 klux 0,0 W/qm 0,0 nein 6,85 µg/m³ 4,63 µg/m³ 04:20
04:25-2,2 °C 51 % 1023,6 hPa 0,0 mm 0,0 mm nein 3,2 km/h 8,0 km/h 0,0 mm/h O 0,000 klux 0,0 W/qm 0,0 nein 6,68 µg/m³ 4,48 µg/m³ 04:25
04:30-2,8 °C 51 % 1023,7 hPa 0,0 mm 0,0 mm nein 0,0 km/h 3,2 km/h 0,0 mm/h O 0,000 klux 0,0 W/qm 0,0 nein 5,56 µg/m³ 3,87 µg/m³ 04:30
04:35-2,8 °C 51 % 1023,8 hPa 0,0 mm 0,0 mm nein 0,0 km/h 1,6 km/h 0,0 mm/h O 0,000 klux 0,0 W/qm 0,0 nein 4,46 µg/m³ 4,02 µg/m³ 04:35
04:40-2,8 °C 52 % 1023,8 hPa 0,0 mm 0,0 mm nein 1,6 km/h 3,2 km/h 0,0 mm/h O 0,000 klux 0,0 W/qm 0,0 nein 6,25 µg/m³ 4,28 µg/m³ 04:40
04:45-2,8 °C 52 % 1023,7 hPa 0,0 mm 0,0 mm nein 1,6 km/h 4,8 km/h 0,0 mm/h O 0,000 klux 0,0 W/qm 0,0 nein 5,29 µg/m³ 4,06 µg/m³ 04:45
04:50-2,8 °C 52 % 1023,7 hPa 0,0 mm 0,0 mm nein 1,6 km/h 4,8 km/h 0,0 mm/h O 0,000 klux 0,0 W/qm 0,0 nein 5,13 µg/m³ 4,21 µg/m³ 04:50
04:55-2,8 °C 52 % 1023,8 hPa 0,0 mm 0,0 mm nein 0,0 km/h 1,6 km/h 0,0 mm/h O 0,000 klux 0,0 W/qm 0,0 nein 8,63 µg/m³ 5,74 µg/m³ 04:55
05:00-2,8 °C 52 % 1023,8 hPa 0,0 mm 0,0 mm nein 0,0 km/h 0,0 km/h 0,0 mm/h N 0,000 klux 0,0 W/qm 0,0 nein 6,29 µg/m³ 4,72 µg/m³ 05:00
05:05-2,8 °C 52 % 1023,7 hPa 0,0 mm 0,0 mm nein 0,0 km/h 0,0 km/h 0,0 mm/h N 0,000 klux 0,0 W/qm 0,0 nein 5,70 µg/m³ 3,99 µg/m³ 05:05
05:10-2,8 °C 53 % 1023,8 hPa 0,0 mm 0,0 mm nein 0,0 km/h 3,2 km/h 0,0 mm/h O 0,000 klux 0,0 W/qm 0,0 nein 5,13 µg/m³ 3,74 µg/m³ 05:10
05:15-2,8 °C 53 % 1024,0 hPa 0,0 mm 0,0 mm nein 0,0 km/h 0,0 km/h 0,0 mm/h N 0,000 klux 0,0 W/qm 0,0 nein 5,92 µg/m³ 3,89 µg/m³ 05:15
05:20-2,8 °C 53 % 1024,0 hPa 0,0 mm 0,0 mm nein 0,0 km/h 0,0 km/h 0,0 mm/h N 0,000 klux 0,0 W/qm 0,0 nein 6,26 µg/m³ 4,31 µg/m³ 05:20
05:25-2,8 °C 53 % 1024,1 hPa 0,0 mm 0,0 mm nein 0,0 km/h 1,6 km/h 0,0 mm/h O 0,000 klux 0,0 W/qm 0,0 nein 5,74 µg/m³ 4,09 µg/m³ 05:25
05:30-2,8 °C 54 % 1024,1 hPa 0,0 mm 0,0 mm nein 1,6 km/h 3,2 km/h 0,0 mm/h O 0,000 klux 0,0 W/qm 0,0 nein 4,32 µg/m³ 3,63 µg/m³ 05:30
05:35-3,3 °C 54 % 1024,3 hPa 0,0 mm 0,0 mm nein 0,0 km/h 1,6 km/h 0,0 mm/h O 0,000 klux 0,0 W/qm 0,0 nein 5,35 µg/m³ 4,04 µg/m³ 05:35
05:40-3,3 °C 54 % 1024,4 hPa 0,0 mm 0,0 mm nein 0,0 km/h 0,0 km/h 0,0 mm/h N 0,000 klux 0,0 W/qm 0,0 nein 5,72 µg/m³ 3,88 µg/m³ 05:40
05:45-3,3 °C 55 % 1024,4 hPa 0,0 mm 0,0 mm nein 0,0 km/h 0,0 km/h 0,0 mm/h N 0,000 klux 0,0 W/qm 0,0 nein 5,39 µg/m³ 3,72 µg/m³ 05:45
05:50-3,3 °C 55 % 1024,4 hPa 0,0 mm 0,0 mm nein 0,0 km/h 1,6 km/h 0,0 mm/h O 0,000 klux 0,0 W/qm 0,0 nein 5,31 µg/m³ 3,85 µg/m³ 05:50
05:55-3,3 °C 56 % 1024,4 hPa 0,0 mm 0,0 mm nein 1,6 km/h 3,2 km/h 0,0 mm/h O 0,000 klux 0,0 W/qm 0,0 nein 6,64 µg/m³ 4,75 µg/m³ 05:55
UhrzeitTemperaturFeuchteLuftdruckNiederschlagEvapotranspirationNiederschlag?WindWindböenRegenrateWindrichtungHelligkeitSolarstrahlungUV-IndexSonne?Feinstaub 10µmFeinstaub 2,5µmUhrzeit
06:00-3,3 °C 55 % 1024,5 hPa 0,0 mm 0,0 mm nein 0,0 km/h 3,2 km/h 0,0 mm/h O 0,000 klux 0,0 W/qm 0,0 nein 6,66 µg/m³ 4,31 µg/m³ 06:00
06:05-3,3 °C 56 % 1024,6 hPa 0,0 mm 0,0 mm nein 0,0 km/h 1,6 km/h 0,0 mm/h O 0,000 klux 0,0 W/qm 0,0 nein 6,00 µg/m³ 4,03 µg/m³ 06:05
06:10-3,3 °C 56 % 1024,6 hPa 0,0 mm 0,0 mm nein 0,0 km/h 0,0 km/h 0,0 mm/h N 0,000 klux 0,0 W/qm 0,0 nein 5,15 µg/m³ 3,97 µg/m³ 06:10
06:15-3,3 °C 56 % 1024,6 hPa 0,0 mm 0,0 mm nein 0,0 km/h 0,0 km/h 0,0 mm/h N 0,000 klux 0,0 W/qm 0,0 nein 7,26 µg/m³ 4,40 µg/m³ 06:15
06:20-3,3 °C 56 % 1024,7 hPa 0,0 mm 0,0 mm nein 0,0 km/h 0,0 km/h 0,0 mm/h N 0,000 klux 0,0 W/qm 0,0 nein 5,49 µg/m³ 3,86 µg/m³ 06:20
06:25-3,3 °C 56 % 1024,8 hPa 0,0 mm 0,0 mm nein 0,0 km/h 0,0 km/h 0,0 mm/h N 0,000 klux 2,0 W/qm 0,0 nein 5,94 µg/m³ 3,97 µg/m³ 06:25
06:30-3,9 °C 57 % 1025,0 hPa 0,0 mm 0,0 mm nein 1,6 km/h 1,6 km/h 0,0 mm/h O 0,000 klux 7,0 W/qm 0,0 nein 6,81 µg/m³ 4,18 µg/m³ 06:30
06:35-3,9 °C 57 % 1025,0 hPa 0,0 mm 0,0 mm nein 1,6 km/h 3,2 km/h 0,0 mm/h O 0,000 klux 11,0 W/qm 0,0 nein 6,63 µg/m³ 4,69 µg/m³ 06:35
06:40-3,9 °C 57 % 1025,0 hPa 0,0 mm 0,0 mm nein 0,0 km/h 0,0 km/h 0,0 mm/h N 0,000 klux 15,0 W/qm 0,0 nein 11,36 µg/m³ 4,60 µg/m³ 06:40
06:45-3,9 °C 58 % 1024,9 hPa 0,0 mm 0,0 mm nein 0,0 km/h 0,0 km/h 0,0 mm/h N 0,000 klux 15,0 W/qm 0,0 nein 6,86 µg/m³ 4,54 µg/m³ 06:45
06:50-3,9 °C 58 % 1025,0 hPa 0,0 mm 0,0 mm nein 3,2 km/h 4,8 km/h 0,0 mm/h O 0,000 klux 17,0 W/qm 0,0 nein 6,54 µg/m³ 4,61 µg/m³ 06:50
06:55-3,9 °C 58 % 1024,9 hPa 0,0 mm 0,0 mm nein 3,2 km/h 4,8 km/h 0,0 mm/h O 0,000 klux 22,0 W/qm 0,0 nein 7,37 µg/m³ 5,33 µg/m³ 06:55
07:00-3,9 °C 57 % 1025,0 hPa 0,0 mm 0,0 mm nein 3,2 km/h 4,8 km/h 0,0 mm/h O 0,000 klux 28,0 W/qm 0,0 nein 9,48 µg/m³ 5,20 µg/m³ 07:00
07:05-3,9 °C 57 % 1025,0 hPa 0,0 mm 0,0 mm nein 3,2 km/h 4,8 km/h 0,0 mm/h O 0,000 klux 34,0 W/qm 0,0 nein 8,16 µg/m³ 4,75 µg/m³ 07:05
07:10-3,3 °C 57 % 1024,9 hPa 0,0 mm 0,0 mm nein 1,6 km/h 3,2 km/h 0,0 mm/h O 0,000 klux 36,0 W/qm 0,0 nein 8,94 µg/m³ 5,59 µg/m³ 07:10
07:15-3,3 °C 57 % 1024,9 hPa 0,0 mm 0,0 mm nein 3,2 km/h 6,4 km/h 0,0 mm/h O 0,000 klux 44,0 W/qm 0,0 nein 9,66 µg/m³ 5,64 µg/m³ 07:15
07:20-3,3 °C 56 % 1024,9 hPa 0,0 mm 0,0 mm nein 3,2 km/h 4,8 km/h 0,0 mm/h O 0,000 klux 56,0 W/qm 0,0 nein 6,58 µg/m³ 4,84 µg/m³ 07:20
07:25-3,3 °C 56 % 1024,9 hPa 0,0 mm 0,0 mm nein 4,8 km/h 6,4 km/h 0,0 mm/h O 0,000 klux 67,0 W/qm 0,0 nein 9,74 µg/m³ 5,90 µg/m³ 07:25
07:30-2,8 °C 56 % 1024,8 hPa 0,0 mm 0,0 mm nein 3,2 km/h 6,4 km/h 0,0 mm/h O 0,000 klux 76,0 W/qm 0,0 nein 11,61 µg/m³ 7,49 µg/m³ 07:30
07:35-2,8 °C 56 % 1024,9 hPa 0,0 mm 0,0 mm nein 1,6 km/h 3,2 km/h 0,0 mm/h OSO 0,000 klux 79,0 W/qm 0,0 nein 8,91 µg/m³ 4,57 µg/m³ 07:35
07:40-2,8 °C 55 % 1024,9 hPa 0,0 mm 0,0 mm nein 1,6 km/h 4,8 km/h 0,0 mm/h OSO 0,000 klux 83,0 W/qm 0,0 nein 5,16 µg/m³ 4,62 µg/m³ 07:40
07:45-2,2 °C 54 % 1024,9 hPa 0,0 mm 0,0 mm nein 1,6 km/h 4,8 km/h 0,0 mm/h O 0,000 klux 83,0 W/qm 0,0 nein 5,72 µg/m³ 4,64 µg/m³ 07:45
07:50-2,2 °C 53 % 1024,9 hPa 0,0 mm 0,0 mm nein 1,6 km/h 6,4 km/h 0,0 mm/h O 0,000 klux 83,0 W/qm 0,0 nein 5,93 µg/m³ 4,54 µg/m³ 07:50
07:55-1,7 °C 52 % 1024,7 hPa 0,0 mm 0,0 mm nein 4,8 km/h 8,0 km/h 0,0 mm/h O 0,000 klux 84,0 W/qm 0,0 nein 7,87 µg/m³ 4,78 µg/m³ 07:55
UhrzeitTemperaturFeuchteLuftdruckNiederschlagEvapotranspirationNiederschlag?WindWindböenRegenrateWindrichtungHelligkeitSolarstrahlungUV-IndexSonne?Feinstaub 10µmFeinstaub 2,5µmUhrzeit
08:00-1,7 °C 51 % 1024,7 hPa 0,0 mm 0,0 mm nein 3,2 km/h 8,0 km/h 0,0 mm/h O 0,000 klux 89,0 W/qm 0,0 nein 10,11 µg/m³ 5,61 µg/m³ 08:00
08:05-1,7 °C 50 % 1024,8 hPa 0,0 mm 0,0 mm nein 3,2 km/h 6,4 km/h 0,0 mm/h O 0,000 klux 103,0 W/qm 0,0 nein 7,35 µg/m³ 4,38 µg/m³ 08:05
08:10-1,1 °C 50 % 1024,7 hPa 0,0 mm 0,0 mm nein 3,2 km/h 9,7 km/h 0,0 mm/h ONO 0,000 klux 123,0 W/qm 0,0 nein 6,28 µg/m³ 5,16 µg/m³ 08:10
08:15-1,1 °C 49 % 1024,6 hPa 0,0 mm 0,0 mm nein 3,2 km/h 8,0 km/h 0,0 mm/h ONO 0,000 klux 135,0 W/qm 0,0 nein 6,38 µg/m³ 4,36 µg/m³ 08:15
08:20-1,1 °C 49 % 1024,7 hPa 0,0 mm 0,0 mm nein 3,2 km/h 8,0 km/h 0,0 mm/h O 0,000 klux 170,0 W/qm 0,0 nein 6,35 µg/m³ 4,92 µg/m³ 08:20
08:25-0,6 °C 48 % 1024,5 hPa 0,0 mm 0,0 mm nein 3,2 km/h 9,7 km/h 0,0 mm/h ONO 0,000 klux 186,0 W/qm 0,0 nein 8,22 µg/m³ 4,83 µg/m³ 08:25
08:30-0,6 °C 48 % 1024,5 hPa 0,0 mm 0,0 mm nein 4,8 km/h 9,7 km/h 0,0 mm/h O 0,000 klux 224,0 W/qm 0,0 nein 7,54 µg/m³ 5,04 µg/m³ 08:30
08:350,0 °C 47 % 1024,5 hPa 0,0 mm 0,0 mm nein 4,8 km/h 8,0 km/h 0,0 mm/h ONO 0,000 klux 255,0 W/qm 0,0 nein 5,16 µg/m³ 4,62 µg/m³ 08:35
08:400,0 °C 47 % 1024,6 hPa 0,0 mm 0,0 mm nein 3,2 km/h 8,0 km/h 0,0 mm/h O 0,000 klux 284,0 W/qm 0,0 nein 7,13 µg/m³ 5,23 µg/m³ 08:40
08:450,6 °C 46 % 1024,5 hPa 0,0 mm 0,0 mm nein 1,6 km/h 4,8 km/h 0,0 mm/h O 0,000 klux 298,0 W/qm 0,0 nein 7,10 µg/m³ 4,89 µg/m³ 08:45
08:501,1 °C 44 % 1024,5 hPa 0,0 mm 0,0 mm nein 3,2 km/h 6,4 km/h 0,0 mm/h ONO 0,000 klux 311,0 W/qm 0,3 nein 5,92 µg/m³ 4,97 µg/m³ 08:50
08:551,1 °C 42 % 1024,5 hPa 0,0 mm 0,0 mm nein 3,2 km/h 9,7 km/h 0,0 mm/h ONO 0,000 klux 325,0 W/qm 0,5 nein 9,54 µg/m³ 6,13 µg/m³ 08:55
09:001,1 °C 43 % 1024,6 hPa 0,0 mm 0,1 mm nein 6,4 km/h 14,5 km/h 0,0 mm/h O 0,000 klux 344,0 W/qm 0,5 nein 4,90 µg/m³ 4,50 µg/m³ 09:00
09:051,7 °C 40 % 1024,5 hPa 0,0 mm 0,0 mm nein 4,8 km/h 11,3 km/h 0,0 mm/h OSO 0,000 klux 351,0 W/qm 0,6 nein 6,25 µg/m³ 5,01 µg/m³ 09:05
09:101,7 °C 41 % 1024,5 hPa 0,0 mm 0,0 mm nein 4,8 km/h 9,7 km/h 0,0 mm/h ONO 0,000 klux 360,0 W/qm 0,6 nein 5,60 µg/m³ 5,04 µg/m³ 09:10
09:151,7 °C 41 % 1024,5 hPa 0,0 mm 0,0 mm nein 3,2 km/h 9,7 km/h 0,0 mm/h OSO 0,000 klux 383,0 W/qm 0,6 nein 4,76 µg/m³ 4,29 µg/m³ 09:15
09:202,2 °C 39 % 1024,3 hPa 0,0 mm 0,0 mm nein 6,4 km/h 12,9 km/h 0,0 mm/h ONO 0,000 klux 398,0 W/qm 0,7 nein 5,18 µg/m³ 4,80 µg/m³ 09:20
09:252,2 °C 39 % 1024,3 hPa 0,0 mm 0,0 mm nein 8,0 km/h 16,1 km/h 0,0 mm/h O 0,000 klux 408,0 W/qm 0,7 nein 4,87 µg/m³ 4,49 µg/m³ 09:25
09:302,2 °C 38 % 1024,3 hPa 0,0 mm 0,0 mm nein 6,4 km/h 16,1 km/h 0,0 mm/h OSO 0,000 klux 420,0 W/qm 0,8 nein 7,18 µg/m³ 4,98 µg/m³ 09:30
09:352,8 °C 39 % 1024,2 hPa 0,0 mm 0,0 mm nein 8,0 km/h 14,5 km/h 0,0 mm/h O 0,000 klux 426,0 W/qm 0,8 nein 5,93 µg/m³ 5,34 µg/m³ 09:35
09:402,8 °C 38 % 1024,2 hPa 0,0 mm 0,0 mm nein 6,4 km/h 14,5 km/h 0,0 mm/h O 0,000 klux 437,0 W/qm 0,8 nein 5,23 µg/m³ 4,82 µg/m³ 09:40
09:452,8 °C 38 % 1024,2 hPa 0,0 mm 0,0 mm nein 6,4 km/h 14,5 km/h 0,0 mm/h ONO 0,000 klux 441,0 W/qm 0,9 nein 6,05 µg/m³ 5,48 µg/m³ 09:45
09:502,8 °C 37 % 1024,2 hPa 0,0 mm 0,0 mm nein 6,4 km/h 14,5 km/h 0,0 mm/h OSO 0,000 klux 453,0 W/qm 0,9 nein 5,48 µg/m³ 5,10 µg/m³ 09:50
09:553,3 °C 36 % 1024,1 hPa 0,0 mm 0,0 mm nein 9,7 km/h 20,9 km/h 0,0 mm/h O 0,000 klux 463,0 W/qm 1,0 nein 4,93 µg/m³ 4,46 µg/m³ 09:55
UhrzeitTemperaturFeuchteLuftdruckNiederschlagEvapotranspirationNiederschlag?WindWindböenRegenrateWindrichtungHelligkeitSolarstrahlungUV-IndexSonne?Feinstaub 10µmFeinstaub 2,5µmUhrzeit
10:003,3 °C 37 % 1024,0 hPa 0,0 mm 0,2 mm nein 9,7 km/h 20,9 km/h 0,0 mm/h O 0,000 klux 468,0 W/qm 1,0 nein 5,69 µg/m³ 4,58 µg/m³ 10:00
10:053,3 °C 36 % 1023,9 hPa 0,0 mm 0,0 mm nein 8,0 km/h 17,7 km/h 0,0 mm/h OSO 0,000 klux 470,0 W/qm 1,0 nein 5,25 µg/m³ 4,68 µg/m³ 10:05
10:103,3 °C 37 % 1023,9 hPa 0,0 mm 0,0 mm nein 6,4 km/h 17,7 km/h 0,0 mm/h OSO 0,000 klux 478,0 W/qm 1,1 nein 5,22 µg/m³ 4,84 µg/m³ 10:10
10:153,3 °C 36 % 1023,9 hPa 0,0 mm 0,0 mm nein 8,0 km/h 17,7 km/h 0,0 mm/h OSO 0,000 klux 485,0 W/qm 1,1 nein 5,62 µg/m³ 5,04 µg/m³ 10:15
10:203,9 °C 37 % 1023,7 hPa 0,0 mm 0,0 mm nein 6,4 km/h 17,7 km/h 0,0 mm/h OSO 0,000 klux 512,0 W/qm 1,2 nein 5,47 µg/m³ 4,96 µg/m³ 10:20
10:253,9 °C 36 % 1023,7 hPa 0,0 mm 0,0 mm nein 4,8 km/h 14,5 km/h 0,0 mm/h SO 0,000 klux 541,0 W/qm 1,2 nein 5,62 µg/m³ 5,09 µg/m³ 10:25
10:304,4 °C 36 % 1023,5 hPa 0,0 mm 0,0 mm nein 6,4 km/h 11,3 km/h 0,0 mm/h O 0,000 klux 550,0 W/qm 1,3 nein 5,14 µg/m³ 4,66 µg/m³ 10:30
10:354,4 °C 35 % 1023,5 hPa 0,0 mm 0,0 mm nein 4,8 km/h 11,3 km/h 0,0 mm/h OSO 0,000 klux 561,0 W/qm 1,3 nein 5,23 µg/m³ 4,76 µg/m³ 10:35
10:405,0 °C 35 % 1023,5 hPa 0,0 mm 0,0 mm nein 8,0 km/h 17,7 km/h 0,0 mm/h O 0,000 klux 570,0 W/qm 1,4 nein 5,09 µg/m³ 4,61 µg/m³ 10:40
10:455,0 °C 34 % 1023,5 hPa 0,0 mm 0,0 mm nein 8,0 km/h 14,5 km/h 0,0 mm/h O 0,000 klux 577,0 W/qm 1,4 nein 5,85 µg/m³ 5,28 µg/m³ 10:45
10:505,0 °C 34 % 1023,6 hPa 0,0 mm 0,0 mm nein 9,7 km/h 16,1 km/h 0,0 mm/h O 0,000 klux 585,0 W/qm 1,4 nein 5,38 µg/m³ 4,90 µg/m³ 10:50
10:555,0 °C 34 % 1023,5 hPa 0,0 mm 0,0 mm nein 4,8 km/h 11,3 km/h 0,0 mm/h OSO 0,000 klux 592,0 W/qm 1,5 nein 6,58 µg/m³ 5,53 µg/m³ 10:55
11:005,6 °C 33 % 1023,4 hPa 0,0 mm 0,3 mm nein 6,4 km/h 11,3 km/h 0,0 mm/h NO 0,000 klux 596,0 W/qm 1,5 nein 6,37 µg/m³ 5,35 µg/m³ 11:00
11:055,6 °C 34 % 1023,4 hPa 0,0 mm 0,0 mm nein 8,0 km/h 17,7 km/h 0,0 mm/h O 0,000 klux 602,0 W/qm 1,5 nein 5,46 µg/m³ 4,98 µg/m³ 11:05
11:105,6 °C 33 % 1023,4 hPa 0,0 mm 0,0 mm nein 4,8 km/h 11,3 km/h 0,0 mm/h OSO 0,000 klux 611,0 W/qm 1,6 nein 7,57 µg/m³ 5,37 µg/m³ 11:10
11:156,1 °C 34 % 1023,2 hPa 0,0 mm 0,0 mm nein 8,0 km/h 14,5 km/h 0,0 mm/h O 0,000 klux 618,0 W/qm 1,6 nein 8,43 µg/m³ 5,65 µg/m³ 11:15
11:206,1 °C 32 % 1023,1 hPa 0,0 mm 0,0 mm nein 6,4 km/h 14,5 km/h 0,0 mm/h OSO 0,000 klux 623,0 W/qm 1,6 nein 8,07 µg/m³ 5,64 µg/m³ 11:20
11:256,7 °C 31 % 1023,0 hPa 0,0 mm 0,0 mm nein 4,8 km/h 12,9 km/h 0,0 mm/h OSO 0,000 klux 629,0 W/qm 1,7 nein 5,96 µg/m³ 5,38 µg/m³ 11:25
11:306,7 °C 32 % 1023,0 hPa 0,0 mm 0,0 mm nein 4,8 km/h 9,7 km/h 0,0 mm/h O 0,000 klux 634,0 W/qm 1,7 nein 5,41 µg/m³ 4,61 µg/m³ 11:30
11:356,7 °C 32 % 1023,0 hPa 0,0 mm 0,0 mm nein 4,8 km/h 12,9 km/h 0,0 mm/h O 0,000 klux 636,0 W/qm 1,7 nein 6,73 µg/m³ 5,57 µg/m³ 11:35
11:406,7 °C 31 % 1022,9 hPa 0,0 mm 0,0 mm nein 11,3 km/h 19,3 km/h 0,0 mm/h ONO 0,000 klux 643,0 W/qm 1,7 nein 5,48 µg/m³ 4,80 µg/m³ 11:40
11:457,2 °C 32 % 1022,8 hPa 0,0 mm 0,0 mm nein 8,0 km/h 17,7 km/h 0,0 mm/h ONO 0,000 klux 648,0 W/qm 1,7 nein 5,94 µg/m³ 5,37 µg/m³ 11:45
11:507,2 °C 32 % 1022,7 hPa 0,0 mm 0,0 mm nein 6,4 km/h 17,7 km/h 0,0 mm/h OSO 0,000 klux 653,0 W/qm 1,8 nein 8,29 µg/m³ 5,45 µg/m³ 11:50
11:557,2 °C 32 % 1022,7 hPa 0,0 mm 0,0 mm nein 6,4 km/h 14,5 km/h 0,0 mm/h OSO 0,000 klux 655,0 W/qm 1,8 nein 9,09 µg/m³ 5,98 µg/m³ 11:55
UhrzeitTemperaturFeuchteLuftdruckNiederschlagEvapotranspirationNiederschlag?WindWindböenRegenrateWindrichtungHelligkeitSolarstrahlungUV-IndexSonne?Feinstaub 10µmFeinstaub 2,5µmUhrzeit
12:007,8 °C 31 % 1022,5 hPa 0,0 mm 0,3 mm nein 8,0 km/h 17,7 km/h 0,0 mm/h O 0,000 klux 658,0 W/qm 1,8 nein 7,13 µg/m³ 5,40 µg/m³ 12:00
12:057,8 °C 31 % 1022,5 hPa 0,0 mm 0,0 mm nein 9,7 km/h 19,3 km/h 0,0 mm/h ONO 0,000 klux 659,0 W/qm 1,8 nein 5,96 µg/m³ 5,38 µg/m³ 12:05
12:107,8 °C 30 % 1022,5 hPa 0,0 mm 0,0 mm nein 8,0 km/h 12,9 km/h 0,0 mm/h O 0,000 klux 660,0 W/qm 1,8 nein 5,98 µg/m³ 5,40 µg/m³ 12:10
12:157,8 °C 33 % 1022,5 hPa 0,0 mm 0,0 mm nein 8,0 km/h 16,1 km/h 0,0 mm/h OSO 0,000 klux 661,0 W/qm 1,8 nein 6,79 µg/m³ 5,60 µg/m³ 12:15
12:207,8 °C 31 % 1022,5 hPa 0,0 mm 0,0 mm nein 6,4 km/h 16,1 km/h 0,0 mm/h OSO 0,000 klux 663,0 W/qm 1,8 nein 6,67 µg/m³ 5,99 µg/m³ 12:20
12:258,3 °C 30 % 1022,4 hPa 0,0 mm 0,0 mm nein 8,0 km/h 17,7 km/h 0,0 mm/h ONO 0,000 klux 664,0 W/qm 1,8 nein 6,06 µg/m³ 5,51 µg/m³ 12:25
12:308,3 °C 30 % 1022,4 hPa 0,0 mm 0,0 mm nein 4,8 km/h 12,9 km/h 0,0 mm/h O 0,000 klux 665,0 W/qm 1,8 nein 6,75 µg/m³ 6,17 µg/m³ 12:30
12:358,3 °C 30 % 1022,4 hPa 0,0 mm 0,0 mm nein 8,0 km/h 17,7 km/h 0,0 mm/h SSO 0,000 klux 665,0 W/qm 1,8 nein 6,86 µg/m³ 6,18 µg/m³ 12:35
12:408,3 °C 30 % 1022,3 hPa 0,0 mm 0,0 mm nein 6,4 km/h 12,9 km/h 0,0 mm/h SO 0,000 klux 666,0 W/qm 1,8 nein 6,96 µg/m³ 6,16 µg/m³ 12:40
12:458,3 °C 30 % 1022,3 hPa 0,0 mm 0,0 mm nein 4,8 km/h 14,5 km/h 0,0 mm/h O 0,000 klux 665,0 W/qm 1,8 nein 6,10 µg/m³ 5,52 µg/m³ 12:45
12:508,3 °C 30 % 1022,2 hPa 0,0 mm 0,0 mm nein 6,4 km/h 12,9 km/h 0,0 mm/h NO 0,000 klux 664,0 W/qm 1,8 nein 6,12 µg/m³ 5,67 µg/m³ 12:50
12:558,3 °C 30 % 1022,2 hPa 0,0 mm 0,0 mm nein 6,4 km/h 17,7 km/h 0,0 mm/h OSO 0,000 klux 663,0 W/qm 1,8 nein 6,20 µg/m³ 5,62 µg/m³ 12:55
13:008,3 °C 30 % 1022,2 hPa 0,0 mm 0,3 mm nein 3,2 km/h 9,7 km/h 0,0 mm/h O 0,000 klux 659,0 W/qm 1,8 nein 7,85 µg/m³ 5,45 µg/m³ 13:00
13:058,3 °C 31 % 1022,1 hPa 0,0 mm 0,0 mm nein 4,8 km/h 12,9 km/h 0,0 mm/h SO 0,000 klux 658,0 W/qm 1,8 nein 6,47 µg/m³ 5,80 µg/m³ 13:05
13:108,3 °C 30 % 1022,0 hPa 0,0 mm 0,0 mm nein 8,0 km/h 19,3 km/h 0,0 mm/h ONO 0,000 klux 655,0 W/qm 1,8 nein 6,30 µg/m³ 5,72 µg/m³ 13:10
13:158,3 °C 30 % 1022,0 hPa 0,0 mm 0,0 mm nein 6,4 km/h 14,5 km/h 0,0 mm/h O 0,000 klux 651,0 W/qm 1,8 nein 6,91 µg/m³ 6,20 µg/m³ 13:15
13:208,3 °C 30 % 1022,0 hPa 0,0 mm 0,0 mm nein 6,4 km/h 14,5 km/h 0,0 mm/h O 0,000 klux 649,0 W/qm 1,7 nein 7,00 µg/m³ 6,17 µg/m³ 13:20
13:258,3 °C 30 % 1021,8 hPa 0,0 mm 0,0 mm nein 8,0 km/h 14,5 km/h 0,0 mm/h ONO 0,000 klux 644,0 W/qm 1,7 nein 6,91 µg/m³ 6,20 µg/m³ 13:25
13:308,3 °C 31 % 1021,8 hPa 0,0 mm 0,0 mm nein 8,0 km/h 17,7 km/h 0,0 mm/h O 0,000 klux 640,0 W/qm 1,7 nein 7,76 µg/m³ 6,50 µg/m³ 13:30
13:358,3 °C 31 % 1021,7 hPa 0,0 mm 0,0 mm nein 12,9 km/h 19,3 km/h 0,0 mm/h O 0,000 klux 635,0 W/qm 1,7 nein 7,76 µg/m³ 6,86 µg/m³ 13:35
13:408,3 °C 30 % 1021,7 hPa 0,0 mm 0,0 mm nein 9,7 km/h 16,1 km/h 0,0 mm/h NO 0,000 klux 630,0 W/qm 1,6 nein 8,07 µg/m³ 7,30 µg/m³ 13:40
13:458,3 °C 32 % 1021,6 hPa 0,0 mm 0,0 mm nein 11,3 km/h 17,7 km/h 0,0 mm/h NO 0,000 klux 624,0 W/qm 1,6 nein 11,05 µg/m³ 7,61 µg/m³ 13:45
13:508,3 °C 32 % 1021,5 hPa 0,0 mm 0,0 mm nein 11,3 km/h 17,7 km/h 0,0 mm/h O 0,000 klux 619,0 W/qm 1,6 nein 9,73 µg/m³ 8,22 µg/m³ 13:50
13:558,9 °C 31 % 1021,4 hPa 0,0 mm 0,0 mm nein 9,7 km/h 16,1 km/h 0,0 mm/h ONO 0,000 klux 612,0 W/qm 1,5 nein 8,57 µg/m³ 6,67 µg/m³ 13:55
UhrzeitTemperaturFeuchteLuftdruckNiederschlagEvapotranspirationNiederschlag?WindWindböenRegenrateWindrichtungHelligkeitSolarstrahlungUV-IndexSonne?Feinstaub 10µmFeinstaub 2,5µmUhrzeit
14:008,9 °C 31 % 1021,4 hPa 0,0 mm 0,3 mm nein 4,8 km/h 11,3 km/h 0,0 mm/h OSO 0,000 klux 605,0 W/qm 1,5 nein 16,65 µg/m³ 8,31 µg/m³ 14:00
14:058,9 °C 31 % 1021,4 hPa 0,0 mm 0,0 mm nein 11,3 km/h 19,3 km/h 0,0 mm/h O 0,000 klux 597,0 W/qm 1,5 nein 7,25 µg/m³ 6,57 µg/m³ 14:05
14:108,9 °C 31 % 1021,3 hPa 0,0 mm 0,0 mm nein 9,7 km/h 22,5 km/h 0,0 mm/h O 0,000 klux 589,0 W/qm 1,4 nein 8,47 µg/m³ 7,61 µg/m³ 14:10
14:158,9 °C 31 % 1021,4 hPa 0,0 mm 0,0 mm nein 9,7 km/h 17,7 km/h 0,0 mm/h OSO 0,000 klux 581,0 W/qm 1,4 nein 11,18 µg/m³ 6,70 µg/m³ 14:15
14:208,9 °C 31 % 1021,3 hPa 0,0 mm 0,0 mm nein 6,4 km/h 16,1 km/h 0,0 mm/h OSO 0,000 klux 573,0 W/qm 1,4 nein 8,76 µg/m³ 7,47 µg/m³ 14:20
14:258,9 °C 31 % 1021,2 hPa 0,0 mm 0,0 mm nein 11,3 km/h 22,5 km/h 0,0 mm/h O 0,000 klux 563,0 W/qm 1,3 nein 8,99 µg/m³ 7,70 µg/m³ 14:25
14:308,9 °C 32 % 1021,1 hPa 0,0 mm 0,0 mm nein 11,3 km/h 20,9 km/h 0,0 mm/h OSO 0,000 klux 544,0 W/qm 1,3 nein 8,77 µg/m³ 7,42 µg/m³ 14:30
14:359,4 °C 32 % 1020,9 hPa 0,0 mm 0,0 mm nein 8,0 km/h 16,1 km/h 0,0 mm/h O 0,000 klux 539,0 W/qm 1,2 nein 10,70 µg/m³ 7,81 µg/m³ 14:35
14:409,4 °C 32 % 1020,9 hPa 0,0 mm 0,0 mm nein 6,4 km/h 14,5 km/h 0,0 mm/h SO 0,000 klux 534,0 W/qm 1,2 nein 9,73 µg/m³ 7,04 µg/m³ 14:40
14:459,4 °C 31 % 1020,8 hPa 0,0 mm 0,0 mm nein 8,0 km/h 17,7 km/h 0,0 mm/h O 0,000 klux 522,0 W/qm 1,2 nein 8,73 µg/m³ 7,86 µg/m³ 14:45
14:509,4 °C 31 % 1020,7 hPa 0,0 mm 0,0 mm nein 9,7 km/h 17,7 km/h 0,0 mm/h O 0,000 klux 517,0 W/qm 1,1 nein 10,27 µg/m³ 7,34 µg/m³ 14:50
14:559,4 °C 30 % 1020,7 hPa 0,0 mm 0,0 mm nein 9,7 km/h 22,5 km/h 0,0 mm/h O 0,000 klux 507,0 W/qm 1,1 nein 10,63 µg/m³ 8,62 µg/m³ 14:55
15:0010,0 °C 31 % 1020,6 hPa 0,0 mm 0,3 mm nein 6,4 km/h 14,5 km/h 0,0 mm/h OSO 0,000 klux 495,0 W/qm 1,0 nein 8,12 µg/m³ 6,96 µg/m³ 15:00
15:0510,0 °C 30 % 1020,4 hPa 0,0 mm 0,0 mm nein 9,7 km/h 19,3 km/h 0,0 mm/h OSO 0,000 klux 482,0 W/qm 1,0 nein 9,14 µg/m³ 7,27 µg/m³ 15:05
15:1010,0 °C 30 % 1020,6 hPa 0,0 mm 0,0 mm nein 9,7 km/h 17,7 km/h 0,0 mm/h O 0,000 klux 457,0 W/qm 0,9 nein 10,75 µg/m³ 8,04 µg/m³ 15:10
15:1510,0 °C 30 % 1020,4 hPa 0,0 mm 0,0 mm nein 9,7 km/h 16,1 km/h 0,0 mm/h ONO 0,000 klux 425,0 W/qm 0,9 nein 9,79 µg/m³ 7,72 µg/m³ 15:15
15:2010,0 °C 30 % 1020,4 hPa 0,0 mm 0,0 mm nein 6,4 km/h 14,5 km/h 0,0 mm/h O 0,000 klux 411,0 W/qm 0,8 nein 9,37 µg/m³ 7,65 µg/m³ 15:20
15:2510,0 °C 30 % 1020,4 hPa 0,0 mm 0,0 mm nein 6,4 km/h 14,5 km/h 0,0 mm/h ONO 0,000 klux 380,0 W/qm 0,8 nein 8,30 µg/m³ 7,33 µg/m³ 15:25
15:3010,0 °C 31 % 1020,4 hPa 0,0 mm 0,0 mm nein 4,8 km/h 11,3 km/h 0,0 mm/h OSO 0,000 klux 347,0 W/qm 0,7 nein 8,31 µg/m³ 7,44 µg/m³ 15:30
15:3510,0 °C 30 % 1020,4 hPa 0,0 mm 0,0 mm nein 6,4 km/h 14,5 km/h 0,0 mm/h SO 0,000 klux 329,0 W/qm 0,7 nein 9,98 µg/m³ 8,21 µg/m³ 15:35
15:4010,0 °C 30 % 1020,3 hPa 0,0 mm 0,0 mm nein 11,3 km/h 20,9 km/h 0,0 mm/h SO 0,000 klux 323,0 W/qm 0,6 nein 10,49 µg/m³ 8,04 µg/m³ 15:40
15:4510,0 °C 31 % 1020,3 hPa 0,0 mm 0,0 mm nein 9,7 km/h 24,1 km/h 0,0 mm/h O 0,000 klux 334,0 W/qm 0,6 nein 10,53 µg/m³ 8,79 µg/m³ 15:45
15:5010,0 °C 31 % 1020,3 hPa 0,0 mm 0,0 mm nein 9,7 km/h 20,9 km/h 0,0 mm/h OSO 0,000 klux 320,0 W/qm 0,6 nein 12,08 µg/m³ 8,73 µg/m³ 15:50
15:5510,0 °C 31 % 1020,3 hPa 0,0 mm 0,0 mm nein 9,7 km/h 19,3 km/h 0,0 mm/h OSO 0,000 klux 305,0 W/qm 0,5 nein 11,40 µg/m³ 8,41 µg/m³ 15:55
UhrzeitTemperaturFeuchteLuftdruckNiederschlagEvapotranspirationNiederschlag?WindWindböenRegenrateWindrichtungHelligkeitSolarstrahlungUV-IndexSonne?Feinstaub 10µmFeinstaub 2,5µmUhrzeit
16:0010,0 °C 31 % 1020,3 hPa 0,0 mm 0,3 mm nein 8,0 km/h 16,1 km/h 0,0 mm/h SO 0,000 klux 288,0 W/qm 0,5 nein 11,69 µg/m³ 8,57 µg/m³ 16:00
16:0510,0 °C 31 % 1020,2 hPa 0,0 mm 0,0 mm nein 6,4 km/h 16,1 km/h 0,0 mm/h OSO 0,000 klux 288,0 W/qm 0,2 nein 12,21 µg/m³ 8,86 µg/m³ 16:05
16:1010,0 °C 31 % 1020,2 hPa 0,0 mm 0,0 mm nein 9,7 km/h 17,7 km/h 0,0 mm/h OSO 0,000 klux 272,0 W/qm 0,0 nein 11,82 µg/m³ 8,41 µg/m³ 16:10
16:1510,0 °C 31 % 1020,3 hPa 0,0 mm 0,0 mm nein 8,0 km/h 19,3 km/h 0,0 mm/h OSO 0,000 klux 255,0 W/qm 0,0 nein 11,79 µg/m³ 8,67 µg/m³ 16:15
16:2010,0 °C 32 % 1020,3 hPa 0,0 mm 0,0 mm nein 8,0 km/h 16,1 km/h 0,0 mm/h OSO 0,000 klux 249,0 W/qm 0,0 nein 12,53 µg/m³ 9,06 µg/m³ 16:20
16:2510,0 °C 32 % 1020,3 hPa 0,0 mm 0,0 mm nein 9,7 km/h 19,3 km/h 0,0 mm/h OSO 0,000 klux 234,0 W/qm 0,0 nein 12,75 µg/m³ 8,67 µg/m³ 16:25
16:3010,0 °C 31 % 1020,4 hPa 0,0 mm 0,0 mm nein 6,4 km/h 17,7 km/h 0,0 mm/h OSO 0,000 klux 210,0 W/qm 0,0 nein 12,88 µg/m³ 9,28 µg/m³ 16:30
16:3510,0 °C 32 % 1020,4 hPa 0,0 mm 0,0 mm nein 6,4 km/h 12,9 km/h 0,0 mm/h OSO 0,000 klux 202,0 W/qm 0,0 nein 9,83 µg/m³ 8,32 µg/m³ 16:35
16:4010,0 °C 32 % 1020,4 hPa 0,0 mm 0,0 mm nein 4,8 km/h 11,3 km/h 0,0 mm/h OSO 0,000 klux 189,0 W/qm 0,0 nein 12,82 µg/m³ 8,99 µg/m³ 16:40
16:4510,0 °C 32 % 1020,4 hPa 0,0 mm 0,0 mm nein 9,7 km/h 19,3 km/h 0,0 mm/h OSO 0,000 klux 152,0 W/qm 0,0 nein 12,75 µg/m³ 9,61 µg/m³ 16:45
16:5010,0 °C 32 % 1020,3 hPa 0,0 mm 0,0 mm nein 8,0 km/h 16,1 km/h 0,0 mm/h OSO 0,000 klux 136,0 W/qm 0,0 nein 11,82 µg/m³ 9,28 µg/m³ 16:50
16:5510,0 °C 33 % 1020,3 hPa 0,0 mm 0,0 mm nein 6,4 km/h 12,9 km/h 0,0 mm/h OSO 0,000 klux 134,0 W/qm 0,0 nein 12,94 µg/m³ 9,58 µg/m³ 16:55
17:0010,0 °C 33 % 1020,3 hPa 0,0 mm 0,2 mm nein 8,0 km/h 19,3 km/h 0,0 mm/h O 0,000 klux 125,0 W/qm 0,0 nein 11,72 µg/m³ 8,91 µg/m³ 17:00
17:0510,0 °C 33 % 1020,3 hPa 0,0 mm 0,0 mm nein 4,8 km/h 9,7 km/h 0,0 mm/h O 0,000 klux 107,0 W/qm 0,0 nein 14,13 µg/m³ 10,28 µg/m³ 17:05
17:1010,0 °C 33 % 1020,2 hPa 0,0 mm 0,0 mm nein 4,8 km/h 11,3 km/h 0,0 mm/h OSO 0,000 klux 92,0 W/qm 0,0 nein 12,49 µg/m³ 9,10 µg/m³ 17:10
17:1510,0 °C 34 % 1020,3 hPa 0,0 mm 0,0 mm nein 4,8 km/h 12,9 km/h 0,0 mm/h OSO 0,000 klux 75,0 W/qm 0,0 nein 12,29 µg/m³ 8,50 µg/m³ 17:15
17:209,4 °C 34 % 1020,4 hPa 0,0 mm 0,0 mm nein 4,8 km/h 12,9 km/h 0,0 mm/h OSO 0,000 klux 68,0 W/qm 0,0 nein 11,95 µg/m³ 8,34 µg/m³ 17:20
17:259,4 °C 34 % 1020,5 hPa 0,0 mm 0,0 mm nein 6,4 km/h 12,9 km/h 0,0 mm/h O 0,000 klux 63,0 W/qm 0,0 nein 9,58 µg/m³ 8,02 µg/m³ 17:25
17:309,4 °C 34 % 1020,4 hPa 0,0 mm 0,0 mm nein 6,4 km/h 12,9 km/h 0,0 mm/h OSO 0,000 klux 55,0 W/qm 0,0 nein 10,54 µg/m³ 8,36 µg/m³ 17:30
17:359,4 °C 34 % 1020,5 hPa 0,0 mm 0,0 mm nein 4,8 km/h 9,7 km/h 0,0 mm/h OSO 0,000 klux 51,0 W/qm 0,0 nein 13,67 µg/m³ 9,10 µg/m³ 17:35
17:409,4 °C 35 % 1020,5 hPa 0,0 mm 0,0 mm nein 6,4 km/h 16,1 km/h 0,0 mm/h OSO 0,000 klux 45,0 W/qm 0,0 nein 14,35 µg/m³ 8,62 µg/m³ 17:40
17:459,4 °C 34 % 1020,4 hPa 0,0 mm 0,0 mm nein 6,4 km/h 12,9 km/h 0,0 mm/h OSO 0,000 klux 39,0 W/qm 0,0 nein 12,65 µg/m³ 9,10 µg/m³ 17:45
17:508,9 °C 35 % 1020,6 hPa 0,0 mm 0,0 mm nein 3,2 km/h 6,4 km/h 0,0 mm/h OSO 0,000 klux 32,0 W/qm 0,0 nein 11,20 µg/m³ 8,40 µg/m³ 17:50
17:558,9 °C 36 % 1020,6 hPa 0,0 mm 0,0 mm nein 3,2 km/h 6,4 km/h 0,0 mm/h OSO 0,000 klux 24,0 W/qm 0,0 nein 12,54 µg/m³ 8,66 µg/m³ 17:55
UhrzeitTemperaturFeuchteLuftdruckNiederschlagEvapotranspirationNiederschlag?WindWindböenRegenrateWindrichtungHelligkeitSolarstrahlungUV-IndexSonne?Feinstaub 10µmFeinstaub 2,5µmUhrzeit
18:008,9 °C 36 % 1020,7 hPa 0,0 mm 0,1 mm nein 1,6 km/h 6,4 km/h 0,0 mm/h OSO 0,000 klux 19,0 W/qm 0,0 nein 11,55 µg/m³ 8,16 µg/m³ 18:00
18:058,9 °C 36 % 1020,7 hPa 0,0 mm 0,0 mm nein 1,6 km/h 3,2 km/h 0,0 mm/h OSO 0,000 klux 13,0 W/qm 0,0 nein 11,83 µg/m³ 7,93 µg/m³ 18:05
18:108,9 °C 36 % 1020,6 hPa 0,0 mm 0,0 mm nein 1,6 km/h 3,2 km/h 0,0 mm/h OSO 0,000 klux 9,0 W/qm 0,0 nein 10,95 µg/m³ 8,02 µg/m³ 18:10
18:158,3 °C 37 % 1020,7 hPa 0,0 mm 0,0 mm nein 0,0 km/h 3,2 km/h 0,0 mm/h OSO 0,000 klux 4,0 W/qm 0,0 nein 13,02 µg/m³ 9,61 µg/m³ 18:15
18:208,3 °C 37 % 1020,7 hPa 0,0 mm 0,0 mm nein 0,0 km/h 1,6 km/h 0,0 mm/h OSO 0,000 klux 0,0 W/qm 0,0 nein 11,67 µg/m³ 8,92 µg/m³ 18:20
18:258,3 °C 38 % 1020,7 hPa 0,0 mm 0,0 mm nein 0,0 km/h 1,6 km/h 0,0 mm/h OSO 0,000 klux 0,0 W/qm 0,0 nein 11,81 µg/m³ 9,45 µg/m³ 18:25
18:307,8 °C 39 % 1020,9 hPa 0,0 mm 0,0 mm nein 0,0 km/h 0,0 km/h 0,0 mm/h N 0,000 klux 0,0 W/qm 0,0 nein 13,30 µg/m³ 10,51 µg/m³ 18:30
18:357,2 °C 40 % 1021,1 hPa 0,0 mm 0,0 mm nein 0,0 km/h 0,0 km/h 0,0 mm/h N 0,000 klux 0,0 W/qm 0,0 nein 16,15 µg/m³ 13,19 µg/m³ 18:35
18:407,2 °C 41 % 1021,1 hPa 0,0 mm 0,0 mm nein 0,0 km/h 0,0 km/h 0,0 mm/h N 0,000 klux 0,0 W/qm 0,0 nein 13,75 µg/m³ 11,48 µg/m³ 18:40
18:456,7 °C 41 % 1021,2 hPa 0,0 mm 0,0 mm nein 1,6 km/h 3,2 km/h 0,0 mm/h OSO 0,000 klux 0,0 W/qm 0,0 nein 13,44 µg/m³ 9,99 µg/m³ 18:45
18:506,7 °C 41 % 1021,2 hPa 0,0 mm 0,0 mm nein 1,6 km/h 3,2 km/h 0,0 mm/h OSO 0,000 klux 0,0 W/qm 0,0 nein 15,09 µg/m³ 11,11 µg/m³ 18:50
18:556,7 °C 42 % 1021,2 hPa 0,0 mm 0,0 mm nein 1,6 km/h 3,2 km/h 0,0 mm/h OSO 0,000 klux 0,0 W/qm 0,0 nein 14,99 µg/m³ 12,36 µg/m³ 18:55
19:006,1 °C 43 % 1021,3 hPa 0,0 mm 0,0 mm nein 1,6 km/h 4,8 km/h 0,0 mm/h OSO 0,000 klux 0,0 W/qm 0,0 nein 12,95 µg/m³ 9,56 µg/m³ 19:00
19:056,1 °C 43 % 1021,3 hPa 0,0 mm 0,0 mm nein 1,6 km/h 4,8 km/h 0,0 mm/h OSO 0,000 klux 0,0 W/qm 0,0 nein 14,15 µg/m³ 10,05 µg/m³ 19:05
19:106,1 °C 44 % 1021,3 hPa 0,0 mm 0,0 mm nein 1,6 km/h 4,8 km/h 0,0 mm/h OSO 0,000 klux 0,0 W/qm 0,0 nein 10,65 µg/m³ 8,96 µg/m³ 19:10
19:155,6 °C 44 % 1021,4 hPa 0,0 mm 0,0 mm nein 1,6 km/h 4,8 km/h 0,0 mm/h OSO 0,000 klux 0,0 W/qm 0,0 nein 11,02 µg/m³ 9,20 µg/m³ 19:15
19:205,6 °C 44 % 1021,4 hPa 0,0 mm 0,0 mm nein 1,6 km/h 4,8 km/h 0,0 mm/h OSO 0,000 klux 0,0 W/qm 0,0 nein 15,19 µg/m³ 10,95 µg/m³ 19:20
19:255,0 °C 44 % 1021,5 hPa 0,0 mm 0,0 mm nein 3,2 km/h 6,4 km/h 0,0 mm/h OSO 0,000 klux 0,0 W/qm 0,0 nein 13,37 µg/m³ 9,11 µg/m³ 19:25
19:305,0 °C 44 % 1021,4 hPa 0,0 mm 0,0 mm nein 1,6 km/h 4,8 km/h 0,0 mm/h OSO 0,000 klux 0,0 W/qm 0,0 nein 11,02 µg/m³ 8,28 µg/m³ 19:30
19:355,0 °C 44 % 1021,5 hPa 0,0 mm 0,0 mm nein 3,2 km/h 4,8 km/h 0,0 mm/h OSO 0,000 klux 0,0 W/qm 0,0 nein 8,84 µg/m³ 7,46 µg/m³ 19:35
19:405,0 °C 44 % 1021,5 hPa 0,0 mm 0,0 mm nein 1,6 km/h 4,8 km/h 0,0 mm/h OSO 0,000 klux 0,0 W/qm 0,0 nein 13,71 µg/m³ 10,68 µg/m³ 19:40
19:454,4 °C 45 % 1021,7 hPa 0,0 mm 0,0 mm nein 3,2 km/h 4,8 km/h 0,0 mm/h OSO 0,000 klux 0,0 W/qm 0,0 nein 11,35 µg/m³ 9,73 µg/m³ 19:45
19:504,4 °C 45 % 1021,7 hPa 0,0 mm 0,0 mm nein 3,2 km/h 4,8 km/h 0,0 mm/h OSO 0,000 klux 0,0 W/qm 0,0 nein 11,47 µg/m³ 8,45 µg/m³ 19:50
19:554,4 °C 45 % 1021,7 hPa 0,0 mm 0,0 mm nein 3,2 km/h 4,8 km/h 0,0 mm/h OSO 0,000 klux 0,0 W/qm 0,0 nein 10,32 µg/m³ 8,91 µg/m³ 19:55
UhrzeitTemperaturFeuchteLuftdruckNiederschlagEvapotranspirationNiederschlag?WindWindböenRegenrateWindrichtungHelligkeitSolarstrahlungUV-IndexSonne?Feinstaub 10µmFeinstaub 2,5µmUhrzeit
20:004,4 °C 46 % 1021,7 hPa 0,0 mm 0,1 mm nein 3,2 km/h 4,8 km/h 0,0 mm/h OSO 0,000 klux 0,0 W/qm 0,0 nein 12,39 µg/m³ 9,20 µg/m³ 20:00
20:053,9 °C 46 % 1021,8 hPa 0,0 mm 0,0 mm nein 3,2 km/h 4,8 km/h 0,0 mm/h OSO 0,000 klux 0,0 W/qm 0,0 nein 10,93 µg/m³ 8,72 µg/m³ 20:05
20:103,9 °C 46 % 1021,8 hPa 0,0 mm 0,0 mm nein 3,2 km/h 4,8 km/h 0,0 mm/h OSO 0,000 klux 0,0 W/qm 0,0 nein 11,11 µg/m³ 8,13 µg/m³ 20:10
20:153,9 °C 46 % 1021,8 hPa 0,0 mm 0,0 mm nein 3,2 km/h 6,4 km/h 0,0 mm/h OSO 0,000 klux 0,0 W/qm 0,0 nein 9,44 µg/m³ 7,81 µg/m³ 20:15
20:203,9 °C 45 % 1021,8 hPa 0,0 mm 0,0 mm nein 4,8 km/h 8,0 km/h 0,0 mm/h OSO 0,000 klux 0,0 W/qm 0,0 nein 9,34 µg/m³ 7,97 µg/m³ 20:20
20:253,9 °C 45 % 1021,8 hPa 0,0 mm 0,0 mm nein 4,8 km/h 9,7 km/h 0,0 mm/h OSO 0,000 klux 0,0 W/qm 0,0 nein 13,83 µg/m³ 8,36 µg/m³ 20:25
20:303,9 °C 43 % 1021,8 hPa 0,0 mm 0,0 mm nein 4,8 km/h 11,3 km/h 0,0 mm/h OSO 0,000 klux 0,0 W/qm 0,0 nein 10,39 µg/m³ 8,05 µg/m³ 20:30
20:353,9 °C 43 % 1021,7 hPa 0,0 mm 0,0 mm nein 4,8 km/h 11,3 km/h 0,0 mm/h OSO 0,000 klux 0,0 W/qm 0,0 nein 9,90 µg/m³ 7,58 µg/m³ 20:35
20:403,9 °C 43 % 1021,7 hPa 0,0 mm 0,0 mm nein 4,8 km/h 6,4 km/h 0,0 mm/h OSO 0,000 klux 0,0 W/qm 0,0 nein 12,61 µg/m³ 8,57 µg/m³ 20:40
20:454,4 °C 42 % 1021,6 hPa 0,0 mm 0,0 mm nein 4,8 km/h 8,0 km/h 0,0 mm/h OSO 0,000 klux 0,0 W/qm 0,0 nein 9,11 µg/m³ 7,81 µg/m³ 20:45
20:504,4 °C 42 % 1021,6 hPa 0,0 mm 0,0 mm nein 4,8 km/h 11,3 km/h 0,0 mm/h OSO 0,000 klux 0,0 W/qm 0,0 nein 10,75 µg/m³ 7,53 µg/m³ 20:50
20:554,4 °C 42 % 1021,7 hPa 0,0 mm 0,0 mm nein 4,8 km/h 11,3 km/h 0,0 mm/h OSO 0,000 klux 0,0 W/qm 0,0 nein 9,48 µg/m³ 7,62 µg/m³ 20:55
21:004,4 °C 41 % 1021,7 hPa 0,0 mm 0,1 mm nein 4,8 km/h 8,0 km/h 0,0 mm/h OSO 0,000 klux 0,0 W/qm 0,0 nein 10,83 µg/m³ 7,81 µg/m³ 21:00
21:054,4 °C 41 % 1021,6 hPa 0,0 mm 0,0 mm nein 4,8 km/h 9,7 km/h 0,0 mm/h OSO 0,000 klux 0,0 W/qm 0,0 nein 7,84 µg/m³ 7,07 µg/m³ 21:05
21:104,4 °C 41 % 1021,6 hPa 0,0 mm 0,0 mm nein 4,8 km/h 11,3 km/h 0,0 mm/h OSO 0,000 klux 0,0 W/qm 0,0 nein 8,37 µg/m³ 7,53 µg/m³ 21:10
21:154,4 °C 41 % 1021,6 hPa 0,0 mm 0,0 mm nein 4,8 km/h 9,7 km/h 0,0 mm/h OSO 0,000 klux 0,0 W/qm 0,0 nein 8,52 µg/m³ 6,79 µg/m³ 21:15
21:204,4 °C 41 % 1021,6 hPa 0,0 mm 0,0 mm nein 4,8 km/h 8,0 km/h 0,0 mm/h OSO 0,000 klux 0,0 W/qm 0,0 nein 8,96 µg/m³ 7,19 µg/m³ 21:20
21:254,4 °C 41 % 1021,6 hPa 0,0 mm 0,0 mm nein 3,2 km/h 8,0 km/h 0,0 mm/h OSO 0,000 klux 0,0 W/qm 0,0 nein 8,15 µg/m³ 7,09 µg/m³ 21:25
21:304,4 °C 41 % 1021,5 hPa 0,0 mm 0,0 mm nein 4,8 km/h 6,4 km/h 0,0 mm/h OSO 0,000 klux 0,0 W/qm 0,0 nein 9,24 µg/m³ 7,16 µg/m³ 21:30
21:354,4 °C 41 % 1021,5 hPa 0,0 mm 0,0 mm nein 4,8 km/h 8,0 km/h 0,0 mm/h OSO 0,000 klux 0,0 W/qm 0,0 nein 8,47 µg/m³ 6,63 µg/m³ 21:35
21:404,4 °C 41 % 1021,4 hPa 0,0 mm 0,0 mm nein 4,8 km/h 8,0 km/h 0,0 mm/h OSO 0,000 klux 0,0 W/qm 0,0 nein 9,71 µg/m³ 7,47 µg/m³ 21:40
21:453,9 °C 41 % 1021,5 hPa 0,0 mm 0,0 mm nein 3,2 km/h 6,4 km/h 0,0 mm/h OSO 0,000 klux 0,0 W/qm 0,0 nein 8,68 µg/m³ 6,84 µg/m³ 21:45
21:503,9 °C 41 % 1021,6 hPa 0,0 mm 0,0 mm nein 3,2 km/h 4,8 km/h 0,0 mm/h OSO 0,000 klux 0,0 W/qm 0,0 nein 8,65 µg/m³ 6,79 µg/m³ 21:50
21:553,9 °C 42 % 1021,6 hPa 0,0 mm 0,0 mm nein 3,2 km/h 4,8 km/h 0,0 mm/h OSO 0,000 klux 0,0 W/qm 0,0 nein 10,59 µg/m³ 7,06 µg/m³ 21:55
UhrzeitTemperaturFeuchteLuftdruckNiederschlagEvapotranspirationNiederschlag?WindWindböenRegenrateWindrichtungHelligkeitSolarstrahlungUV-IndexSonne?Feinstaub 10µmFeinstaub 2,5µmUhrzeit
22:003,9 °C 43 % 1021,6 hPa 0,0 mm 0,1 mm nein 3,2 km/h 4,8 km/h 0,0 mm/h OSO 0,000 klux 0,0 W/qm 0,0 nein 9,28 µg/m³ 6,84 µg/m³ 22:00
22:053,9 °C 43 % 1021,6 hPa 0,0 mm 0,0 mm nein 3,2 km/h 4,8 km/h 0,0 mm/h OSO 0,000 klux 0,0 W/qm 0,0 nein 7,95 µg/m³ 6,20 µg/m³ 22:05
22:103,3 °C 43 % 1021,7 hPa 0,0 mm 0,0 mm nein 3,2 km/h 4,8 km/h 0,0 mm/h SO 0,000 klux 0,0 W/qm 0,0 nein 8,79 µg/m³ 7,40 µg/m³ 22:10
22:153,3 °C 43 % 1021,6 hPa 0,0 mm 0,0 mm nein 3,2 km/h 4,8 km/h 0,0 mm/h OSO 0,000 klux 0,0 W/qm 0,0 nein 8,69 µg/m³ 6,91 µg/m³ 22:15
22:203,3 °C 44 % 1021,6 hPa 0,0 mm 0,0 mm nein 3,2 km/h 4,8 km/h 0,0 mm/h OSO 0,000 klux 0,0 W/qm 0,0 nein 8,84 µg/m³ 6,81 µg/m³ 22:20
22:252,8 °C 44 % 1021,6 hPa 0,0 mm 0,0 mm nein 3,2 km/h 4,8 km/h 0,0 mm/h OSO 0,000 klux 0,0 W/qm 0,0 nein 8,38 µg/m³ 7,34 µg/m³ 22:25
22:302,8 °C 45 % 1021,6 hPa 0,0 mm 0,0 mm nein 1,6 km/h 3,2 km/h 0,0 mm/h OSO 0,000 klux 0,0 W/qm 0,0 nein 9,04 µg/m³ 7,42 µg/m³ 22:30
22:352,8 °C 45 % 1021,6 hPa 0,0 mm 0,0 mm nein 1,6 km/h 4,8 km/h 0,0 mm/h OSO 0,000 klux 0,0 W/qm 0,0 nein 8,33 µg/m³ 7,48 µg/m³ 22:35
22:402,8 °C 45 % 1021,6 hPa 0,0 mm 0,0 mm nein 1,6 km/h 4,8 km/h 0,0 mm/h OSO 0,000 klux 0,0 W/qm 0,0 nein 10,87 µg/m³ 7,85 µg/m³ 22:40
22:452,2 °C 46 % 1021,6 hPa 0,0 mm 0,0 mm nein 1,6 km/h 4,8 km/h 0,0 mm/h OSO 0,000 klux 0,0 W/qm 0,0 nein 9,09 µg/m³ 7,76 µg/m³ 22:45
22:502,2 °C 47 % 1021,6 hPa 0,0 mm 0,0 mm nein 3,2 km/h 4,8 km/h 0,0 mm/h OSO 0,000 klux 0,0 W/qm 0,0 nein 10,48 µg/m³ 8,09 µg/m³ 22:50
22:552,2 °C 47 % 1021,6 hPa 0,0 mm 0,0 mm nein 3,2 km/h 4,8 km/h 0,0 mm/h SO 0,000 klux 0,0 W/qm 0,0 nein 11,79 µg/m³ 7,22 µg/m³ 22:55
23:001,7 °C 47 % 1021,7 hPa 0,0 mm 0,1 mm nein 3,2 km/h 4,8 km/h 0,0 mm/h SO 0,000 klux 0,0 W/qm 0,0 nein 10,46 µg/m³ 7,86 µg/m³ 23:00
23:051,7 °C 48 % 1021,7 hPa 0,0 mm 0,0 mm nein 1,6 km/h 4,8 km/h 0,0 mm/h OSO 0,000 klux 0,0 W/qm 0,0 nein 10,79 µg/m³ 8,01 µg/m³ 23:05
23:101,7 °C 48 % 1021,7 hPa 0,0 mm 0,0 mm nein 1,6 km/h 3,2 km/h 0,0 mm/h OSO 0,000 klux 0,0 W/qm 0,0 nein 8,78 µg/m³ 7,20 µg/m³ 23:10
23:151,7 °C 48 % 1021,7 hPa 0,0 mm 0,0 mm nein 1,6 km/h 3,2 km/h 0,0 mm/h OSO 0,000 klux 0,0 W/qm 0,0 nein 12,83 µg/m³ 7,09 µg/m³ 23:15
23:201,1 °C 49 % 1021,8 hPa 0,0 mm 0,0 mm nein 1,6 km/h 4,8 km/h 0,0 mm/h OSO 0,000 klux 0,0 W/qm 0,0 nein 8,37 µg/m³ 6,84 µg/m³ 23:20
23:251,1 °C 49 % 1021,8 hPa 0,0 mm 0,0 mm nein 3,2 km/h 4,8 km/h 0,0 mm/h OSO 0,000 klux 0,0 W/qm 0,0 nein 11,57 µg/m³ 7,16 µg/m³ 23:25
23:301,1 °C 49 % 1021,7 hPa 0,0 mm 0,0 mm nein 3,2 km/h 6,4 km/h 0,0 mm/h OSO 0,000 klux 0,0 W/qm 0,0 nein 8,62 µg/m³ 7,38 µg/m³ 23:30
23:351,1 °C 48 % 1021,7 hPa 0,0 mm 0,0 mm nein 3,2 km/h 6,4 km/h 0,0 mm/h OSO 0,000 klux 0,0 W/qm 0,0 nein 9,29 µg/m³ 6,84 µg/m³ 23:35
23:401,1 °C 49 % 1021,7 hPa 0,0 mm 0,0 mm nein 3,2 km/h 6,4 km/h 0,0 mm/h OSO 0,000 klux 0,0 W/qm 0,0 nein 8,66 µg/m³ 6,20 µg/m³ 23:40
23:451,1 °C 48 % 1021,7 hPa 0,0 mm 0,0 mm nein 3,2 km/h 4,8 km/h 0,0 mm/h OSO 0,000 klux 0,0 W/qm 0,0 nein 7,74 µg/m³ 6,27 µg/m³ 23:45
23:501,1 °C 49 % 1021,7 hPa 0,0 mm 0,0 mm nein 3,2 km/h 4,8 km/h 0,0 mm/h SO 0,000 klux 0,0 W/qm 0,0 nein 8,68 µg/m³ 6,22 µg/m³ 23:50
23:551,1 °C 49 % 1021,6 hPa 0,0 mm 0,0 mm nein 3,2 km/h 4,8 km/h 0,0 mm/h SO 0,000 klux 0,0 W/qm 0,0 nein 8,14 µg/m³ 6,80 µg/m³ 23:55
Gesamt: 3,3 °C 42 % 1022,6 hPa 0,0 mm 2,8 mm nein 4,4 km/h 9,3 km/h 0,0 mm/h 0 0,000 klux 182,3 W/qm 0,4 nein 8,60 µg/m³ 6,43 µg/m³

Insgesamt 288 Zeilen mal 16 Spalten = 4608 Werte werden angezeigt.

www.wetter-rosstal.de   •   www.wetter-franken.de   •   www.lightningmaps.org   •   Start   •   Kontakt / Datenschutz   •   PC-Kümmerer